createdAt,value
2023-04-11T00:02:17.777Z,2.40
2023-04-11T00:04:45.640Z,2.22
2023-04-11T00:07:13.402Z,2.13
2023-04-11T00:09:41.098Z,1.90
2023-04-11T00:12:08.805Z,1.70
2023-04-11T00:14:36.524Z,2.03
2023-04-11T00:17:06.097Z,2.05
2023-04-11T00:19:33.835Z,1.77
2023-04-11T00:22:01.519Z,2.40
2023-04-11T00:24:29.201Z,2.50
2023-04-11T00:26:58.326Z,1.95
2023-04-11T00:29:25.987Z,1.92
2023-04-11T00:31:55.428Z,0.88
2023-04-11T00:34:24.566Z,0.50
2023-04-11T00:36:52.300Z,0.65
2023-04-11T00:39:21.273Z,0.50
2023-04-11T00:41:49.276Z,0.60
2023-04-11T00:44:17.081Z,0.90
2023-04-11T00:46:46.162Z,0.70
2023-04-11T00:49:14.243Z,0.82
2023-04-11T00:51:43.376Z,0.80
2023-04-11T00:54:12.133Z,0.90
2023-04-11T00:56:39.975Z,1.17
2023-04-11T00:59:07.644Z,1.10
2023-04-11T01:01:36.341Z,1.20
2023-04-11T01:04:04.716Z,1.60
2023-04-11T01:06:33.669Z,1.08
2023-04-11T01:09:04.836Z,1.58
2023-04-11T01:11:33.489Z,1.05
2023-04-11T01:14:01.210Z,1.33
2023-04-11T01:16:28.899Z,1.17
2023-04-11T01:18:56.817Z,0.95
2023-04-11T01:21:26.129Z,1.37
2023-04-11T01:23:56.442Z,1.80
2023-04-11T01:26:24.113Z,2.22
2023-04-11T01:28:52.488Z,2.30
2023-04-11T01:31:20.253Z,2.47
2023-04-11T01:33:48.316Z,2.85
2023-04-11T01:36:15.960Z,3.08
2023-04-11T01:38:43.743Z,3.50
2023-04-11T01:41:13.214Z,3.40
2023-04-11T01:43:41.031Z,3.47
2023-04-11T01:46:09.085Z,3.42
2023-04-11T01:48:36.791Z,4.20
2023-04-11T01:51:04.938Z,4.13
2023-04-11T01:53:32.754Z,4.32
2023-04-11T01:56:00.467Z,4.65
2023-04-11T01:58:29.617Z,4.35
2023-04-11T02:00:57.293Z,4.80
2023-04-11T02:03:25.073Z,4.03
2023-04-11T02:05:52.916Z,4.63
2023-04-11T02:08:20.635Z,5.07
2023-04-11T02:10:48.387Z,5.28
2023-04-11T02:13:16.058Z,5.13
2023-04-11T02:15:45.180Z,4.97
2023-04-11T02:18:13.083Z,4.63
2023-04-11T02:20:41.514Z,4.80
2023-04-11T02:23:09.285Z,4.18
2023-04-11T02:25:37.045Z,4.32
2023-04-11T02:28:07.425Z,4.57
2023-04-11T02:30:35.903Z,5.93
2023-04-11T02:33:05.121Z,4.57
2023-04-11T02:35:32.874Z,4.43
2023-04-11T02:38:00.745Z,5.67
2023-04-11T02:40:28.856Z,4.70
2023-04-11T02:42:56.479Z,4.70
2023-04-11T02:45:24.143Z,4.43
2023-04-11T02:47:51.865Z,4.75
2023-04-11T02:50:21.107Z,4.05
2023-04-11T02:52:49.663Z,3.80
2023-04-11T02:55:17.414Z,4.13
2023-04-11T02:57:45.073Z,3.78
2023-04-11T03:00:13.738Z,3.60
2023-04-11T03:02:41.759Z,3.33
2023-04-11T03:05:10.454Z,3.00
2023-04-11T03:07:40.617Z,2.58
2023-04-11T03:10:09.620Z,2.90
2023-04-11T03:12:37.358Z,2.80
2023-04-11T03:15:05.763Z,3.22
2023-04-11T03:17:34.369Z,3.30
2023-04-11T03:20:02.106Z,3.15
2023-04-11T03:22:29.800Z,3.30
2023-04-11T03:24:58.835Z,2.80
2023-04-11T03:27:27.121Z,2.40
2023-04-11T03:29:54.920Z,2.47
2023-04-11T03:32:22.718Z,2.15
2023-04-11T03:34:51.785Z,1.90
2023-04-11T03:37:19.545Z,2.13
2023-04-11T03:39:47.196Z,1.80
2023-04-11T03:42:16.293Z,2.17
2023-04-11T03:44:44.026Z,2.07
2023-04-11T03:47:11.757Z,1.73
2023-04-11T03:49:39.620Z,1.73
2023-04-11T03:52:07.398Z,1.77
2023-04-11T03:54:35.194Z,1.95
2023-04-11T03:57:02.859Z,1.55
2023-04-11T03:59:31.995Z,1.50
2023-04-11T04:01:59.698Z,1.02
2023-04-11T04:04:27.566Z,1.15
2023-04-11T04:06:56.781Z,1.50
2023-04-11T04:09:24.689Z,1.35
2023-04-11T04:11:52.365Z,1.20
2023-04-11T04:14:20.399Z,1.02
2023-04-11T04:16:49.549Z,1.10
2023-04-11T04:19:17.237Z,1.40
2023-04-11T04:21:45.893Z,1.00
2023-04-11T04:24:13.602Z,1.30
2023-04-11T04:26:41.300Z,1.35
2023-04-11T04:29:10.272Z,1.00
2023-04-11T04:31:38.724Z,1.00
2023-04-11T04:34:09.567Z,1.30
2023-04-11T04:36:46.205Z,1.52
2023-04-11T04:39:17.457Z,1.17
2023-04-11T04:41:46.432Z,1.33
2023-04-11T04:44:15.967Z,1.30
2023-04-11T04:46:43.737Z,1.38
2023-04-11T04:49:12.777Z,1.10
2023-04-11T04:51:41.228Z,1.37
2023-04-11T04:54:08.919Z,1.65
2023-04-11T04:56:36.606Z,1.60
2023-04-11T04:59:04.400Z,1.08
2023-04-11T05:01:33.010Z,1.50
2023-04-11T05:04:01.945Z,1.48
2023-04-11T05:06:32.586Z,1.10
2023-04-11T05:09:03.764Z,0.80
2023-04-11T05:11:31.459Z,1.30
2023-04-11T05:13:59.117Z,1.00
2023-04-11T05:16:26.831Z,1.02
2023-04-11T05:18:54.454Z,1.00
2023-04-11T05:21:22.312Z,1.00
2023-04-11T05:23:51.397Z,1.10
2023-04-11T05:26:19.042Z,1.30
2023-04-11T05:28:47.007Z,0.93
2023-04-11T05:31:14.786Z,0.85
2023-04-11T05:33:43.203Z,1.10
2023-04-11T05:36:13.950Z,1.25
2023-04-11T05:38:41.885Z,1.25
2023-04-11T05:41:11.548Z,0.95
2023-04-11T05:43:39.410Z,0.93
2023-04-11T05:46:08.895Z,1.10
2023-04-11T05:48:38.157Z,0.98
2023-04-11T05:51:06.159Z,1.17
2023-04-11T05:53:33.816Z,0.98
2023-04-11T05:56:01.830Z,1.30
2023-04-11T05:58:30.994Z,1.02
2023-04-11T06:00:59.471Z,0.80
2023-04-11T06:03:27.587Z,0.90
2023-04-11T06:05:55.551Z,0.98
2023-04-11T06:08:23.355Z,0.75
2023-04-11T06:10:51.062Z,0.88
2023-04-11T06:13:18.782Z,0.77
2023-04-11T06:15:47.917Z,1.10
2023-04-11T06:18:15.688Z,0.80
2023-04-11T06:20:43.310Z,1.02
2023-04-11T06:23:11.062Z,1.10
2023-04-11T06:25:38.770Z,1.20
2023-04-11T06:28:06.549Z,0.98
2023-04-11T06:30:34.223Z,1.08
2023-04-11T06:33:03.456Z,0.95
2023-04-11T06:35:31.269Z,1.52
2023-04-11T06:37:59.045Z,0.73
2023-04-11T06:40:26.735Z,1.17
2023-04-11T06:42:55.297Z,0.60
2023-04-11T06:45:23.068Z,0.90
2023-04-11T06:47:51.078Z,0.90
2023-04-11T06:50:20.355Z,1.15
2023-04-11T06:52:48.102Z,0.90
2023-04-11T06:55:16.136Z,0.80
2023-04-11T06:57:44.674Z,1.10
2023-04-11T07:00:13.585Z,0.60
2023-04-11T07:02:41.904Z,1.25
2023-04-11T07:05:10.318Z,0.90
2023-04-11T07:07:39.765Z,1.10
2023-04-11T07:10:08.642Z,1.13
2023-04-11T07:12:36.347Z,1.10
2023-04-11T07:15:04.764Z,1.10
2023-04-11T07:17:32.470Z,1.17
2023-04-11T07:20:00.196Z,1.35
2023-04-11T07:22:29.262Z,0.77
2023-04-11T07:24:58.394Z,0.67
2023-04-11T07:27:26.585Z,1.10
2023-04-11T07:29:54.279Z,0.90
2023-04-11T07:32:21.995Z,0.70
2023-04-11T07:34:49.766Z,0.82
2023-04-11T07:37:18.195Z,0.77
2023-04-11T07:39:45.911Z,1.08
2023-04-11T07:42:14.994Z,0.85
2023-04-11T07:44:42.692Z,1.10
2023-04-11T07:47:10.387Z,0.85
2023-04-11T07:49:38.096Z,0.70
2023-04-11T07:52:06.016Z,1.02
2023-04-11T07:54:34.154Z,1.08
2023-04-11T07:57:02.488Z,0.70
2023-04-11T07:59:31.756Z,0.88
2023-04-11T08:02:01.104Z,1.23
2023-04-11T08:04:32.525Z,1.35
2023-04-11T08:07:00.508Z,1.02
2023-04-11T08:09:28.618Z,1.10
2023-04-11T08:11:57.015Z,0.88
2023-04-11T08:14:24.778Z,0.70
2023-04-11T08:16:54.454Z,0.95
2023-04-11T08:19:22.357Z,0.82
2023-04-11T08:21:50.044Z,0.65
2023-04-11T08:24:17.846Z,0.73
2023-04-11T08:26:45.617Z,1.05
2023-04-11T08:29:13.404Z,0.70
2023-04-11T08:31:43.510Z,0.83
2023-04-11T08:34:12.790Z,0.70
2023-04-11T08:36:41.403Z,0.80
2023-04-11T08:39:09.076Z,0.73
2023-04-11T08:41:37.171Z,1.20
2023-04-11T08:44:05.630Z,0.53
2023-04-11T08:46:34.193Z,0.68
2023-04-11T08:49:02.068Z,0.60
2023-04-11T08:51:31.557Z,0.80
2023-04-11T08:54:02.225Z,0.77
2023-04-11T08:56:29.929Z,0.60
2023-04-11T08:58:57.604Z,0.57
2023-04-11T09:01:27.269Z,0.68
2023-04-11T09:03:55.359Z,0.70
2023-04-11T09:06:23.505Z,0.43
2023-04-11T09:08:52.650Z,0.63
2023-04-11T09:11:20.778Z,0.70
2023-04-11T09:13:48.593Z,0.60
2023-04-11T09:16:16.539Z,0.50
2023-04-11T09:18:46.252Z,0.70
2023-04-11T09:21:15.295Z,0.60
2023-04-11T09:23:43.379Z,0.60
2023-04-11T09:26:13.592Z,0.60
2023-04-11T09:28:42.959Z,0.60
2023-04-11T09:31:12.951Z,0.77
2023-04-11T09:33:41.264Z,0.77
2023-04-11T09:36:20.142Z,0.80
2023-04-11T09:38:47.931Z,0.70
2023-04-11T09:41:17.281Z,0.80
2023-04-11T09:43:56.617Z,0.70
2023-04-11T09:46:25.366Z,0.50
2023-04-11T09:48:54.647Z,0.65
2023-04-11T09:53:53.383Z,0.50
2023-04-11T09:56:24.126Z,0.60
2023-04-11T09:58:52.401Z,0.70
2023-04-11T10:01:20.629Z,0.65
2023-04-11T10:03:51.084Z,0.80
2023-04-11T10:06:24.212Z,0.35
2023-04-11T10:08:52.741Z,0.60
2023-04-11T10:11:24.276Z,0.45
2023-04-11T10:13:52.085Z,0.70
2023-04-11T10:16:22.309Z,0.30
2023-04-11T10:19:23.634Z,0.40
2023-04-11T10:21:51.627Z,0.43
2023-04-11T10:24:21.089Z,0.50
2023-04-11T10:26:52.095Z,0.30
2023-04-11T10:29:51.369Z,0.30
2023-04-11T10:32:24.712Z,0.60
2023-04-11T10:35:20.689Z,0.70
2023-04-11T10:37:49.175Z,0.38
2023-04-11T10:40:19.666Z,0.50
2023-04-11T10:42:49.373Z,0.57
2023-04-11T10:45:27.008Z,0.45
2023-04-11T10:48:13.168Z,0.45
2023-04-11T10:50:42.517Z,0.40
2023-04-11T10:53:14.222Z,0.40
2023-04-11T10:55:47.273Z,0.40
2023-04-11T10:58:19.712Z,0.70
2023-04-11T11:01:25.680Z,0.50
2023-04-11T11:04:00.518Z,0.40
2023-04-11T11:06:29.029Z,0.47
2023-04-11T11:08:57.880Z,0.50
2023-04-11T11:11:25.623Z,0.80
2023-04-11T11:13:56.597Z,0.57
2023-04-11T11:16:25.890Z,0.47
2023-04-11T11:18:55.020Z,0.50
2023-04-11T11:21:28.334Z,0.30
2023-04-11T11:23:58.288Z,0.38
2023-04-11T11:26:39.341Z,0.40
2023-04-11T11:29:09.086Z,0.40
2023-04-11T11:31:39.259Z,0.43
2023-04-11T11:34:22.319Z,0.40
2023-04-11T11:36:51.255Z,0.25
2023-04-11T11:39:21.144Z,0.30
2023-04-11T11:41:50.172Z,0.25
2023-04-11T11:44:26.713Z,0.20
2023-04-11T11:47:04.768Z,0.10
2023-04-11T11:49:45.558Z,0.20
2023-04-11T11:52:13.822Z,0.20
2023-04-11T11:54:45.553Z,0.15
2023-04-11T11:57:13.328Z,0.20
2023-04-11T11:59:42.675Z,0.50
2023-04-11T12:02:10.611Z,0.40
2023-04-11T12:04:38.528Z,0.63
2023-04-11T12:07:11.238Z,0.30
2023-04-11T12:09:39.807Z,0.45
2023-04-11T12:12:10.161Z,0.35
2023-04-11T12:14:37.816Z,0.30
2023-04-11T12:17:09.595Z,0.20
2023-04-11T12:19:37.298Z,0.30
2023-04-11T12:22:05.057Z,0.40
2023-04-11T12:24:32.767Z,0.40
2023-04-11T12:29:48.103Z,0.20
2023-04-11T12:32:17.168Z,0.35
2023-04-11T12:34:44.921Z,0.40
2023-04-11T12:37:12.609Z,0.50
2023-04-11T12:39:40.318Z,0.30
2023-04-11T12:42:08.987Z,0.25
2023-04-11T12:44:37.652Z,0.20
2023-04-11T12:47:05.592Z,0.50
2023-04-11T12:49:34.661Z,0.40
2023-04-11T12:52:02.866Z,0.30
2023-04-11T12:54:30.519Z,0.30
2023-04-11T12:56:58.354Z,0.40
2023-04-11T12:59:26.724Z,0.20
2023-04-11T13:01:54.412Z,0.30
2023-04-11T13:04:22.492Z,0.28
2023-04-11T13:06:52.377Z,0.38
2023-04-11T13:09:20.047Z,0.40
2023-04-11T13:11:47.690Z,0.38
2023-04-11T13:14:15.432Z,0.30
2023-04-11T13:16:45.743Z,0.38
2023-04-11T13:19:13.520Z,0.30
2023-04-11T13:21:41.152Z,0.20
2023-04-11T13:24:10.284Z,0.30
2023-04-11T13:26:39.336Z,0.30
2023-04-11T13:29:07.691Z,0.30
2023-04-11T13:31:35.704Z,0.20
2023-04-11T13:34:03.523Z,0.30
2023-04-11T13:36:32.288Z,0.30
2023-04-11T13:39:00.192Z,0.30
2023-04-11T13:41:29.407Z,0.35
2023-04-11T13:43:57.082Z,0.30
2023-04-11T13:46:24.736Z,0.27
2023-04-11T13:48:52.948Z,0.20
2023-04-11T13:51:20.691Z,0.30
2023-04-11T13:53:48.352Z,1.30
2023-04-11T13:56:16.085Z,0.40
2023-04-11T13:58:45.405Z,0.63
2023-04-11T14:01:13.133Z,0.67
2023-04-11T14:03:42.929Z,0.32
2023-04-11T14:06:10.910Z,0.30
2023-04-11T14:08:38.609Z,0.77
2023-04-11T14:11:06.597Z,0.40
2023-04-11T14:13:34.291Z,0.30
2023-04-11T14:16:08.586Z,0.50
2023-04-11T14:18:37.240Z,0.40
2023-04-11T14:21:06.084Z,0.50
2023-04-11T14:24:41.688Z,0.50
2023-04-11T14:27:09.567Z,0.40
2023-04-11T14:29:37.569Z,0.50
2023-04-11T14:32:06.900Z,0.40
2023-04-11T14:34:34.732Z,0.40
2023-04-11T14:37:02.471Z,0.50
2023-04-11T14:39:30.432Z,0.47
2023-04-11T14:42:01.941Z,0.47
2023-04-11T14:44:29.969Z,0.50
2023-04-11T14:46:57.762Z,0.60
2023-04-11T14:49:25.581Z,0.70
2023-04-11T14:51:53.229Z,0.50
2023-04-11T14:54:21.388Z,0.40
2023-04-11T14:56:49.171Z,0.25
2023-04-11T14:59:18.291Z,0.40
2023-04-11T15:01:46.423Z,0.25
2023-04-11T15:04:14.682Z,0.20
2023-04-11T15:06:42.476Z,0.20
2023-04-11T15:09:10.344Z,0.50
2023-04-11T15:11:37.999Z,0.32
2023-04-11T15:14:05.705Z,0.20
2023-04-11T15:16:34.831Z,0.40
2023-04-11T15:19:02.556Z,0.40
2023-04-11T15:21:30.271Z,0.50
2023-04-11T15:23:58.230Z,0.50
2023-04-11T15:26:26.334Z,0.60
2023-04-11T15:28:54.105Z,0.40
2023-04-11T15:31:26.468Z,0.40
2023-04-11T15:33:57.181Z,0.70
2023-04-11T15:36:25.051Z,0.70
2023-04-11T15:38:52.760Z,0.40
2023-04-11T15:41:20.800Z,0.45
2023-04-11T15:43:48.563Z,0.57
2023-04-11T15:46:16.328Z,0.47
2023-04-11T15:48:44.243Z,0.57
2023-04-11T15:51:21.409Z,0.50
2023-04-11T15:53:49.409Z,0.52
2023-04-11T15:56:18.926Z,0.70
2023-04-11T15:58:49.648Z,0.43
2023-04-11T16:01:22.837Z,0.80
2023-04-11T16:03:51.703Z,0.40
2023-04-11T16:06:21.113Z,0.20
2023-04-11T16:08:50.479Z,0.75
2023-04-11T16:11:19.819Z,0.73
2023-04-11T16:13:48.955Z,0.55
2023-04-11T16:16:16.661Z,0.50
2023-04-11T16:18:44.443Z,0.80
2023-04-11T16:21:16.456Z,0.40
2023-04-11T16:23:47.912Z,0.50
2023-04-11T16:26:16.131Z,0.57
2023-04-11T16:28:44.106Z,0.60
2023-04-11T16:31:14.150Z,0.63
2023-04-11T16:33:41.872Z,0.40
2023-04-11T16:36:12.996Z,0.20
2023-04-11T16:38:40.721Z,0.50
2023-04-11T16:41:09.757Z,0.30
2023-04-11T16:43:37.425Z,0.45
2023-04-11T16:46:07.398Z,0.60
2023-04-11T16:48:35.152Z,0.30
2023-04-11T16:51:02.973Z,0.45
2023-04-11T16:53:30.880Z,0.30
2023-04-11T16:55:58.584Z,0.30
2023-04-11T16:58:28.532Z,0.35
2023-04-11T17:00:56.342Z,0.40
2023-04-11T17:03:24.130Z,0.40
2023-04-11T17:05:52.094Z,0.40
2023-04-11T17:08:19.784Z,0.28
2023-04-11T17:10:47.454Z,0.40
2023-04-11T17:13:17.992Z,0.70
2023-04-11T17:15:47.153Z,1.08
2023-04-11T17:18:15.317Z,0.80
2023-04-11T17:20:43.758Z,0.50
2023-04-11T17:23:11.409Z,0.60
2023-04-11T17:25:39.099Z,0.57
2023-04-11T17:28:06.840Z,0.30
2023-04-11T17:30:35.406Z,0.30
2023-04-11T17:33:04.594Z,0.20
2023-04-11T17:35:32.345Z,0.20
2023-04-11T17:38:00.623Z,0.22
2023-04-11T17:40:28.489Z,0.52
2023-04-11T17:42:57.668Z,0.30
2023-04-11T17:45:25.458Z,0.27
2023-04-11T17:47:53.255Z,0.43
2023-04-11T17:50:22.468Z,0.30
2023-04-11T17:52:50.132Z,0.20
2023-04-11T17:55:18.874Z,0.30
2023-04-11T17:57:47.290Z,0.38
2023-04-11T18:00:19.876Z,0.22
2023-04-11T18:02:49.068Z,0.27
2023-04-11T18:05:23.895Z,0.20
2023-04-11T18:07:56.488Z,0.28
2023-04-11T18:10:25.823Z,0.10
2023-04-11T18:12:54.436Z,0.20
2023-04-11T18:15:22.703Z,0.30
2023-04-11T18:17:51.861Z,0.13
2023-04-11T18:20:19.882Z,0.30
2023-04-11T18:22:48.702Z,0.20
2023-04-11T18:25:17.882Z,0.30
2023-04-11T18:27:45.600Z,0.22
2023-04-11T18:30:14.647Z,0.40
2023-04-11T18:32:47.297Z,0.40
2023-04-11T18:35:16.120Z,0.45
2023-04-11T18:37:44.016Z,1.30
2023-04-11T18:40:13.987Z,3.80
2023-04-11T18:42:45.948Z,5.27
2023-04-11T18:45:15.026Z,6.15
2023-04-11T18:47:43.098Z,4.10
2023-04-11T18:50:11.373Z,3.28
2023-04-11T18:52:39.110Z,2.78
2023-04-11T18:55:07.962Z,2.50
2023-04-11T18:57:37.945Z,2.35
2023-04-11T19:00:17.496Z,3.10
2023-04-11T19:02:46.803Z,4.55
2023-04-11T19:05:15.600Z,10.57
2023-04-11T19:07:43.833Z,16.60
2023-04-11T19:10:12.736Z,17.25
2023-04-11T19:12:41.028Z,19.33
2023-04-11T19:15:11.637Z,15.85
2023-04-11T19:17:39.719Z,14.30
2023-04-11T19:20:12.315Z,13.20
2023-04-11T19:22:41.284Z,13.63
2023-04-11T19:25:11.076Z,12.38
2023-04-11T19:27:41.396Z,11.13
2023-04-11T19:30:15.724Z,11.10
2023-04-11T19:32:46.056Z,9.95
2023-04-11T19:35:14.304Z,9.18
2023-04-11T19:37:42.800Z,8.52
2023-04-11T19:40:12.344Z,7.27
2023-04-11T19:42:40.550Z,7.18
2023-04-11T19:45:11.885Z,6.30
2023-04-11T19:47:40.662Z,5.20
2023-04-11T19:50:11.604Z,3.95
2023-04-11T19:52:39.437Z,3.57
2023-04-11T19:55:09.369Z,3.47
2023-04-11T19:57:38.301Z,3.03
2023-04-11T20:00:11.817Z,3.42
2023-04-11T20:02:44.321Z,2.60
2023-04-11T20:05:12.422Z,1.85
2023-04-11T20:07:40.229Z,1.92
2023-04-11T20:10:09.014Z,1.60
2023-04-11T20:12:36.698Z,1.50
2023-04-11T20:15:04.606Z,1.42
2023-04-11T20:17:32.371Z,1.60
2023-04-11T20:20:06.076Z,1.73
2023-04-11T20:22:34.177Z,1.80
2023-04-11T20:25:02.005Z,1.33
2023-04-11T20:27:29.754Z,1.60
2023-04-11T20:29:57.869Z,1.48
2023-04-11T20:32:25.652Z,1.40
2023-04-11T20:34:53.443Z,1.63
2023-04-11T20:37:23.418Z,2.00
2023-04-11T20:39:51.702Z,4.70
2023-04-11T20:42:20.491Z,7.70
2023-04-11T20:44:48.450Z,7.80
2023-04-11T20:47:16.169Z,6.38
2023-04-11T20:49:45.613Z,5.23
2023-04-11T20:52:13.550Z,2.83
2023-04-11T20:54:42.598Z,1.90
2023-04-11T20:57:10.248Z,1.27
2023-04-11T20:59:39.123Z,1.77
2023-04-11T21:02:06.963Z,1.17
2023-04-11T21:04:34.890Z,1.20
2023-04-11T21:07:02.952Z,1.23
2023-04-11T21:09:30.806Z,1.40
2023-04-11T21:11:59.853Z,0.95
2023-04-11T21:14:27.538Z,1.00
2023-04-11T21:16:55.215Z,1.40
2023-04-11T21:19:22.918Z,1.33
2023-04-11T21:21:50.705Z,1.33
2023-04-11T21:24:18.374Z,1.50
2023-04-11T21:26:46.124Z,1.50
2023-04-11T21:29:15.212Z,1.70
2023-04-11T21:31:43.056Z,1.63
2023-04-11T21:34:10.835Z,1.80
2023-04-11T21:36:38.480Z,1.77
2023-04-11T21:39:08.709Z,1.88
2023-04-11T21:41:36.584Z,1.65
2023-04-11T21:44:04.412Z,1.58
2023-04-11T21:46:33.546Z,1.45
2023-04-11T21:49:01.766Z,1.42
2023-04-11T21:51:29.435Z,1.50
2023-04-11T21:53:57.317Z,1.73
2023-04-11T21:56:25.237Z,1.15
2023-04-11T21:58:52.966Z,1.40
2023-04-11T22:01:21.108Z,1.33
2023-04-11T22:03:52.502Z,1.48
2023-04-11T22:06:20.521Z,1.40
2023-04-11T22:08:50.534Z,1.25
2023-04-11T22:11:18.366Z,1.30
2023-04-11T22:13:46.746Z,1.43
2023-04-11T22:16:15.107Z,1.42
2023-04-11T22:18:49.737Z,1.40
2023-04-11T22:21:21.021Z,1.47
2023-04-11T22:23:54.366Z,1.70
2023-04-11T22:26:26.374Z,1.67
2023-04-11T22:28:55.396Z,1.52
2023-04-11T22:31:23.311Z,1.70
2023-04-11T22:33:51.127Z,1.48
2023-04-11T22:36:21.482Z,1.45
2023-04-11T22:38:49.300Z,1.13
2023-04-11T22:41:17.256Z,1.63
2023-04-11T22:43:45.333Z,1.58
2023-04-11T22:46:13.675Z,1.67
2023-04-11T22:48:41.960Z,1.20
2023-04-11T22:51:09.714Z,1.27
2023-04-11T22:53:42.306Z,1.40
2023-04-11T22:56:11.785Z,1.27
2023-04-11T22:58:39.499Z,1.42
2023-04-11T23:01:08.108Z,1.63
2023-04-11T23:03:35.890Z,1.50
2023-04-11T23:06:03.690Z,1.48
2023-04-11T23:08:32.526Z,1.30
2023-04-11T23:11:01.896Z,1.30
2023-04-11T23:13:29.923Z,1.48
2023-04-11T23:15:57.972Z,1.50
2023-04-11T23:18:25.756Z,1.70
2023-04-11T23:20:53.485Z,1.35
2023-04-11T23:23:21.243Z,1.80
2023-04-11T23:25:49.543Z,1.15
2023-04-11T23:28:18.635Z,1.38
2023-04-11T23:30:46.393Z,1.52
2023-04-11T23:33:15.449Z,1.35
2023-04-11T23:35:43.164Z,1.30
2023-04-11T23:38:11.586Z,1.50
2023-04-11T23:40:39.488Z,1.73
2023-04-11T23:43:07.210Z,1.60
2023-04-11T23:45:36.450Z,1.52
2023-04-11T23:48:04.378Z,1.60
2023-04-11T23:50:32.139Z,1.58
2023-04-11T23:52:59.797Z,1.80
2023-04-11T23:55:27.537Z,2.00
2023-04-11T23:57:55.281Z,1.97
